Abadi — V8V2002 — position and weather

sailwx.info

Track history (hours):
 
Tides and Currents Weather Stations Pressure Air Temp Water Temp Dewpoint Dewpoint Depression Visibility Wind Speed Wind Dir Waves Ship Positions

Abadi

Last reported at 2017-Jul-20 23:41 UTC. Time now 2017-Jul-21 20:43 UTC.
Position N 32°45' E 125°47'.

Type: Ship (hazmat cat A). MMSI: 508011000.

Date/timePositionNaut miles runAvg speedWind from/ knotsBaromVisibWave heightAir tempDewpointWater temp
2017-Jul-20 23:41N 32°45' E 125°47'315.8
2017-Jul-20 23:30N 32°47' E 125°46'1115.9
2017-Jul-20 22:49N 32°58' E 125°41'916.3
2017-Jul-20 22:16N 33°06' E 125°37'716.4
2017-Jul-20 21:50N 33°13' E 125°34'516.5
2017-Jul-20 21:30N 33°18' E 125°31'816.7
2017-Jul-20 21:00N 33°25' E 125°27'916.7
2017-Jul-20 20:26N 33°34' E 125°23'716.5
2017-Jul-20 20:00N 33°39' E 125°18'916.9
2017-Jul-20 19:28N 33°46' E 125°10'817.3
2017-Jul-20 19:01N 33°51' E 125°03'916.9
2017-Jul-20 18:30N 33°58' E 124°56'816.3
2017-Jul-20 18:00N 34°04' E 124°49'816.2
2017-Jul-20 17:30N 34°10' E 124°43'916.0
2017-Jul-20 16:55N 34°18' E 124°37'716.0
2017-Jul-20 16:30N 34°23' E 124°31'915.6
2017-Jul-20 15:55N 34°28' E 124°23'715.5
2017-Jul-20 15:30N 34°33' E 124°17'815.2
2017-Jul-20 14:59N 34°39' E 124°11'  
Track history (hours):
 
Tides and Currents Weather Stations Pressure Air Temp Water Temp Dewpoint Dewpoint Depression Visibility Wind Speed Wind Dir Waves Ship Positions

Abadi

Last reported at 2017-Jul-20 23:41 UTC. Time now 2017-Jul-21 20:43 UTC.
Position N 32°45' E 125°47'.

Type: Ship (hazmat cat A). MMSI: 508011000.

Date/timePositionNaut miles runAvg speedWind from/ knotsBaromVisibWave heightAir tempDewpointWater temp
2017-Jul-20 23:41N 32°45' E 125°47'315.8
2017-Jul-20 23:30N 32°47' E 125°46'1115.9
2017-Jul-20 22:49N 32°58' E 125°41'916.3
2017-Jul-20 22:16N 33°06' E 125°37'716.4
2017-Jul-20 21:50N 33°13' E 125°34'516.5
2017-Jul-20 21:30N 33°18' E 125°31'816.7
2017-Jul-20 21:00N 33°25' E 125°27'916.7
2017-Jul-20 20:26N 33°34' E 125°23'716.5
2017-Jul-20 20:00N 33°39' E 125°18'916.9
2017-Jul-20 19:28N 33°46' E 125°10'817.3
2017-Jul-20 19:01N 33°51' E 125°03'916.9
2017-Jul-20 18:30N 33°58' E 124°56'816.3
2017-Jul-20 18:00N 34°04' E 124°49'816.2
2017-Jul-20 17:30N 34°10' E 124°43'916.0
2017-Jul-20 16:55N 34°18' E 124°37'716.0
2017-Jul-20 16:30N 34°23' E 124°31'915.6
2017-Jul-20 15:55N 34°28' E 124°23'715.5
2017-Jul-20 15:30N 34°33' E 124°17'815.2
2017-Jul-20 14:59N 34°39' E 124°11'  

Dump ship's entire track history